createdAt,value
2019-02-25T00:01:57.616Z,3.70
2019-02-25T00:04:26.625Z,4.20
2019-02-25T00:06:54.945Z,3.77
2019-02-25T00:09:23.285Z,4.00
2019-02-25T00:11:51.694Z,4.33
2019-02-25T00:14:20.107Z,3.87
2019-02-25T00:16:48.431Z,3.80
2019-02-25T00:19:17.169Z,3.70
2019-02-25T00:21:45.515Z,3.90
2019-02-25T00:24:13.903Z,3.13
2019-02-25T00:26:42.595Z,3.60
2019-02-25T00:29:10.983Z,3.17
2019-02-25T00:31:39.339Z,3.60
2019-02-25T00:34:07.812Z,3.27
2019-02-25T00:36:36.148Z,3.80
2019-02-25T00:39:04.574Z,4.00
2019-02-25T00:41:33.416Z,3.47
2019-02-25T00:44:01.887Z,3.57
2019-02-25T00:46:30.201Z,3.70
2019-02-25T00:48:58.819Z,3.87
2019-02-25T00:51:27.200Z,4.33
2019-02-25T00:53:55.540Z,3.97
2019-02-25T00:56:24.089Z,3.77
2019-02-25T00:58:52.488Z,3.90
2019-02-25T01:01:20.902Z,3.70
2019-02-25T01:03:49.509Z,3.63
2019-02-25T01:06:18.150Z,3.77
2019-02-25T01:08:46.491Z,3.70
2019-02-25T01:11:14.968Z,3.30
2019-02-25T01:13:43.347Z,4.00
2019-02-25T01:16:11.678Z,3.90
2019-02-25T01:18:40.412Z,3.73
2019-02-25T01:21:08.804Z,4.23
2019-02-25T01:23:37.125Z,3.27
2019-02-25T01:26:05.613Z,3.87
2019-02-25T01:28:34.271Z,3.80
2019-02-25T01:31:02.680Z,3.37
2019-02-25T01:33:31.315Z,3.70
2019-02-25T01:35:59.973Z,3.97
2019-02-25T01:38:28.274Z,3.50
2019-02-25T01:40:57.036Z,3.53
2019-02-25T01:43:25.463Z,2.67
2019-02-25T01:45:53.893Z,4.00
2019-02-25T01:48:22.522Z,4.03
2019-02-25T01:50:50.915Z,3.53
2019-02-25T01:53:19.207Z,3.37
2019-02-25T01:55:47.917Z,3.13
2019-02-25T01:58:16.264Z,3.40
2019-02-25T02:00:44.643Z,2.80
2019-02-25T02:03:13.357Z,3.27
2019-02-25T02:05:41.775Z,4.20
2019-02-25T02:08:10.221Z,3.37
2019-02-25T02:10:39.102Z,3.90
2019-02-25T02:13:13.935Z,3.27
2019-02-25T02:15:35.891Z,3.07
2019-02-25T02:18:04.334Z,3.70
2019-02-25T02:20:32.886Z,3.43
2019-02-25T02:23:01.216Z,3.87
2019-02-25T02:25:30.003Z,3.80
2019-02-25T02:27:58.402Z,3.43
2019-02-25T02:30:26.740Z,3.27
2019-02-25T02:32:55.253Z,4.00
2019-02-25T02:35:23.683Z,4.10
2019-02-25T02:37:52.362Z,3.90
2019-02-25T02:40:20.971Z,4.50
2019-02-25T02:42:51.713Z,4.53
2019-02-25T02:46:00.311Z,4.60
2019-02-25T02:48:32.526Z,4.80
2019-02-25T02:51:00.830Z,4.90
2019-02-25T02:53:29.750Z,4.83
2019-02-25T02:55:58.441Z,3.97
2019-02-25T02:58:26.821Z,4.80
2019-02-25T03:00:55.404Z,4.60
2019-02-25T03:03:23.904Z,4.50
2019-02-25T03:05:52.252Z,4.27
2019-02-25T03:08:20.794Z,4.93
2019-02-25T03:10:49.317Z,5.80
2019-02-25T03:13:17.768Z,4.17
2019-02-25T03:15:46.183Z,4.53
2019-02-25T03:18:14.549Z,4.07
2019-02-25T03:20:42.926Z,4.43
2019-02-25T03:23:11.552Z,4.50
2019-02-25T03:25:39.893Z,4.57
2019-02-25T03:28:08.615Z,4.23
2019-02-25T03:30:37.047Z,4.30
2019-02-25T03:33:05.407Z,3.90
2019-02-25T03:35:33.766Z,4.20
2019-02-25T03:38:02.565Z,4.17
2019-02-25T03:40:30.963Z,4.43
2019-02-25T03:42:59.266Z,3.67
2019-02-25T03:45:27.832Z,3.73
2019-02-25T03:47:56.448Z,3.80
2019-02-25T03:50:24.858Z,4.20
2019-02-25T03:52:53.442Z,3.27
2019-02-25T03:55:21.863Z,4.03
2019-02-25T03:57:50.243Z,4.07
2019-02-25T04:00:20.555Z,3.13
2019-02-25T04:02:48.844Z,3.27
2019-02-25T04:05:17.149Z,3.17
2019-02-25T04:07:46.645Z,3.63
2019-02-25T04:10:15.066Z,3.20
2019-02-25T04:12:43.671Z,3.57
2019-02-25T04:15:14.229Z,4.23
2019-02-25T04:17:42.636Z,3.70
2019-02-25T04:20:12.741Z,3.10
2019-02-25T04:22:41.292Z,3.03
2019-02-25T04:25:09.802Z,3.40
2019-02-25T04:27:38.181Z,3.33
2019-02-25T04:30:08.463Z,4.30
2019-02-25T04:32:37.111Z,4.27
2019-02-25T04:35:06.164Z,4.00
2019-02-25T04:37:34.613Z,3.53
2019-02-25T04:40:03.224Z,3.27
2019-02-25T04:42:31.577Z,3.27
2019-02-25T04:45:00.566Z,3.67
2019-02-25T04:47:28.977Z,3.60
2019-02-25T04:49:57.269Z,3.10
2019-02-25T04:52:25.700Z,3.40
2019-02-25T04:54:54.147Z,3.33
2019-02-25T04:57:22.454Z,3.33
2019-02-25T04:59:50.919Z,3.90
2019-02-25T05:02:19.349Z,3.80
2019-02-25T05:04:47.981Z,3.83
2019-02-25T05:07:16.787Z,3.57
2019-02-25T05:09:45.263Z,3.37
2019-02-25T05:12:13.603Z,3.33
2019-02-25T05:14:42.329Z,3.57
2019-02-25T05:17:10.700Z,3.60
2019-02-25T05:19:39.100Z,3.47
2019-02-25T05:22:07.550Z,4.10
2019-02-25T05:24:36.065Z,4.03
2019-02-25T05:27:04.522Z,3.80
2019-02-25T05:29:33.207Z,4.00
2019-02-25T05:32:01.604Z,3.73
2019-02-25T05:34:30.221Z,3.43
2019-02-25T05:36:58.611Z,3.23
2019-02-25T05:39:26.974Z,4.10
2019-02-25T05:41:55.344Z,3.60
2019-02-25T05:44:24.421Z,4.23
2019-02-25T05:46:52.796Z,3.30
2019-02-25T05:49:21.163Z,3.43
2019-02-25T05:51:49.835Z,3.77
2019-02-25T05:54:18.227Z,3.50
2019-02-25T05:56:46.613Z,4.50
2019-02-25T05:59:15.173Z,3.43
2019-02-25T06:01:43.821Z,3.70
2019-02-25T06:04:12.171Z,3.43
2019-02-25T06:06:40.570Z,2.90
2019-02-25T06:09:08.970Z,3.20
2019-02-25T06:11:37.468Z,3.07
2019-02-25T06:14:06.463Z,3.33
2019-02-25T06:16:34.812Z,3.30
2019-02-25T06:19:03.227Z,2.83
2019-02-25T06:21:31.607Z,3.43
2019-02-25T06:23:59.904Z,3.17
2019-02-25T06:26:28.276Z,3.10
2019-02-25T06:28:56.905Z,2.80
2019-02-25T06:31:25.429Z,3.00
2019-02-25T06:33:53.716Z,3.47
2019-02-25T06:36:22.169Z,3.57
2019-02-25T06:38:50.511Z,3.53
2019-02-25T06:41:18.846Z,3.03
2019-02-25T06:43:47.226Z,2.80
2019-02-25T06:46:15.621Z,2.83
2019-02-25T06:48:44.035Z,3.17
2019-02-25T06:51:12.738Z,2.50
2019-02-25T06:53:41.154Z,2.20
2019-02-25T06:56:10.125Z,2.10
2019-02-25T06:58:38.526Z,2.40
2019-02-25T07:01:07.093Z,2.30
2019-02-25T07:03:35.551Z,2.20
2019-02-25T07:06:11.303Z,2.10
2019-02-25T07:09:13.068Z,1.93
2019-02-25T07:11:49.920Z,3.27
2019-02-25T07:14:30.501Z,2.97
2019-02-25T07:17:37.135Z,2.33
2019-02-25T07:20:11.822Z,2.80
2019-02-25T07:22:45.433Z,1.90
2019-02-25T07:25:19.164Z,2.10
2019-02-25T07:27:52.731Z,2.17
2019-02-25T07:32:30.262Z,2.00
2019-02-25T07:37:08.192Z,2.00
2019-02-25T07:39:42.232Z,2.23
2019-02-25T07:42:23.921Z,2.30
2019-02-25T07:44:57.411Z,2.13
2019-02-25T07:47:33.015Z,2.60
2019-02-25T07:50:13.723Z,2.00
2019-02-25T07:52:59.430Z,2.27
2019-02-25T07:55:33.961Z,2.40
2019-02-25T07:58:38.615Z,2.33
2019-02-25T08:03:15.921Z,2.17
2019-02-25T08:05:59.703Z,2.43
2019-02-25T08:08:40.076Z,2.40
2019-02-25T08:11:14.629Z,2.37
2019-02-25T08:13:48.187Z,2.57
2019-02-25T08:16:36.797Z,2.53
2019-02-25T08:19:10.620Z,2.60
2019-02-25T08:23:46.300Z,2.60
2019-02-25T08:27:23.046Z,2.20
2019-02-25T08:30:06.004Z,2.20
2019-02-25T08:32:48.514Z,2.77
2019-02-25T08:35:33.868Z,2.20
2019-02-25T08:38:07.688Z,2.60
2019-02-25T08:40:46.999Z,2.50
2019-02-25T08:43:24.104Z,2.90
2019-02-25T08:45:56.883Z,2.60
2019-02-25T08:48:30.337Z,2.13
2019-02-25T08:50:59.352Z,2.43
2019-02-25T08:53:29.819Z,2.50
2019-02-25T08:55:58.236Z,2.30
2019-02-25T08:58:24.684Z,2.60
2019-02-25T09:00:53.044Z,2.53
2019-02-25T09:03:21.440Z,2.10
2019-02-25T09:05:50.113Z,2.57
2019-02-25T09:08:18.459Z,2.80
2019-02-25T09:10:47.040Z,2.30
2019-02-25T09:13:15.517Z,2.40
2019-02-25T09:15:43.883Z,2.13
2019-02-25T09:18:12.303Z,2.33
2019-02-25T09:20:40.768Z,2.30
2019-02-25T09:23:09.177Z,2.63
2019-02-25T09:25:37.587Z,2.60
2019-02-25T09:28:06.193Z,2.87
2019-02-25T09:30:34.611Z,2.53
2019-02-25T09:33:03.011Z,2.30
2019-02-25T09:35:31.669Z,2.27
2019-02-25T09:38:00.331Z,2.10
2019-02-25T09:40:28.716Z,2.20
2019-02-25T09:42:57.225Z,1.90
2019-02-25T09:45:25.522Z,2.03
2019-02-25T09:47:53.836Z,2.27
2019-02-25T09:50:22.277Z,1.70
2019-02-25T09:52:50.639Z,1.97
2019-02-25T09:55:19.013Z,2.23
2019-02-25T09:57:47.449Z,2.10
2019-02-25T10:00:16.337Z,2.57
2019-02-25T10:02:44.679Z,1.90
2019-02-25T10:05:13.992Z,1.97
2019-02-25T10:07:42.401Z,2.00
2019-02-25T10:10:12.390Z,1.90
2019-02-25T10:12:41.060Z,2.13
2019-02-25T10:15:11.281Z,1.90
2019-02-25T10:17:39.579Z,2.10
2019-02-25T10:20:08.873Z,1.97
2019-02-25T10:22:37.507Z,1.90
2019-02-25T10:25:06.309Z,2.77
2019-02-25T10:27:34.875Z,2.00
2019-02-25T10:30:04.151Z,1.93
2019-02-25T10:32:31.650Z,2.17
2019-02-25T10:35:00.331Z,2.00
2019-02-25T10:37:28.499Z,1.83
2019-02-25T10:39:56.858Z,1.80
2019-02-25T10:42:25.275Z,1.53
2019-02-25T10:44:53.584Z,1.90
2019-02-25T10:47:21.964Z,2.27
2019-02-25T10:49:50.556Z,2.27
2019-02-25T10:52:19.028Z,1.87
2019-02-25T10:54:47.878Z,2.17
2019-02-25T10:57:21.304Z,2.37
2019-02-25T10:59:47.565Z,2.30
2019-02-25T11:02:17.475Z,2.10
2019-02-25T11:04:44.437Z,1.83
2019-02-25T11:07:12.877Z,2.30
2019-02-25T11:10:04.362Z,1.93
2019-02-25T11:12:32.794Z,2.57
2019-02-25T11:15:01.271Z,2.70
2019-02-25T11:17:30.211Z,2.40
2019-02-25T11:20:00.340Z,1.43
2019-02-25T11:22:27.011Z,2.33
2019-02-25T11:24:57.721Z,1.97
2019-02-25T11:27:24.525Z,2.00
2019-02-25T11:29:52.863Z,2.13
2019-02-25T11:32:21.622Z,1.93
2019-02-25T11:34:49.748Z,1.67
2019-02-25T11:37:19.769Z,1.70
2019-02-25T11:39:46.757Z,2.10
2019-02-25T11:42:17.691Z,2.57
2019-02-25T11:44:43.595Z,2.27
2019-02-25T11:47:12.097Z,2.27
2019-02-25T11:49:40.480Z,1.60
2019-02-25T11:52:08.981Z,2.00
2019-02-25T11:54:37.409Z,1.97
2019-02-25T11:57:05.925Z,2.00
2019-02-25T11:59:34.303Z,2.07
2019-02-25T12:02:02.850Z,2.47
2019-02-25T12:04:31.252Z,2.17
2019-02-25T12:06:59.552Z,2.00
2019-02-25T12:09:28.021Z,1.97
2019-02-25T12:11:56.493Z,2.57
2019-02-25T12:14:24.877Z,2.40
2019-02-25T12:16:53.595Z,2.07
2019-02-25T12:19:22.039Z,1.83
2019-02-25T12:21:50.361Z,2.73
2019-02-25T12:24:19.025Z,2.13
2019-02-25T12:26:47.547Z,2.10
2019-02-25T12:29:16.066Z,1.83
2019-02-25T12:31:44.532Z,2.00
2019-02-25T12:34:13.231Z,2.03
2019-02-25T12:36:41.622Z,2.40
2019-02-25T12:39:10.173Z,2.03
2019-02-25T12:41:38.526Z,1.70
2019-02-25T12:44:07.066Z,2.23
2019-02-25T12:46:35.539Z,1.60
2019-02-25T12:49:04.193Z,2.23
2019-02-25T12:51:32.515Z,1.63
2019-02-25T12:54:01.014Z,2.20
2019-02-25T12:56:29.437Z,1.77
2019-02-25T12:58:57.767Z,1.73
2019-02-25T13:01:26.536Z,2.00
2019-02-25T13:03:54.915Z,2.60
2019-02-25T13:06:23.219Z,2.07
2019-02-25T13:08:51.998Z,1.80
2019-02-25T13:11:20.495Z,1.90
2019-02-25T13:13:48.880Z,1.90
2019-02-25T13:16:17.390Z,2.30
2019-02-25T13:18:45.742Z,1.77
2019-02-25T13:21:14.200Z,1.63
2019-02-25T13:23:42.690Z,1.50
2019-02-25T13:26:11.011Z,1.97
2019-02-25T13:28:39.385Z,1.87
2019-02-25T13:31:08.480Z,2.10
2019-02-25T13:33:36.151Z,1.90
2019-02-25T13:36:05.345Z,2.13
2019-02-25T13:38:33.929Z,2.43
2019-02-25T13:41:02.264Z,1.80
2019-02-25T13:43:30.602Z,1.60
2019-02-25T13:45:59.318Z,2.10
2019-02-25T13:48:27.970Z,1.90
2019-02-25T13:50:56.335Z,2.10
2019-02-25T13:53:25.248Z,2.30
2019-02-25T13:55:53.624Z,2.27
2019-02-25T13:58:22.019Z,2.10
2019-02-25T14:00:50.572Z,1.70
2019-02-25T14:03:19.200Z,1.90
2019-02-25T14:05:47.544Z,2.00
2019-02-25T14:08:16.204Z,2.23
2019-02-25T14:10:44.652Z,2.30
2019-02-25T14:13:13.208Z,1.50
2019-02-25T14:15:41.999Z,2.20
2019-02-25T14:18:10.322Z,1.93
2019-02-25T14:20:38.727Z,2.30
2019-02-25T14:23:07.440Z,2.33
2019-02-25T14:25:37.633Z,2.30
2019-02-25T14:28:07.833Z,2.17
2019-02-25T14:30:33.766Z,2.00
2019-02-25T14:33:02.189Z,1.80
2019-02-25T14:35:30.576Z,1.80
2019-02-25T14:38:05.056Z,2.40
2019-02-25T14:40:31.525Z,2.00
2019-02-25T14:42:56.918Z,2.50
2019-02-25T14:45:26.494Z,1.70
2019-02-25T14:47:57.571Z,2.40
2019-02-25T14:50:21.785Z,1.97
2019-02-25T14:52:50.470Z,1.60
2019-02-25T14:55:18.869Z,2.87
2019-02-25T14:57:47.400Z,2.13
2019-02-25T15:00:17.996Z,1.67
2019-02-25T15:02:47.738Z,1.80
2019-02-25T15:05:15.184Z,1.60
2019-02-25T15:07:44.972Z,2.23
2019-02-25T15:10:12.174Z,1.73
2019-02-25T15:12:40.540Z,1.83
2019-02-25T15:15:10.620Z,2.23
2019-02-25T15:17:39.833Z,1.77
2019-02-25T15:20:10.455Z,2.40
2019-02-25T15:22:38.377Z,1.90
2019-02-25T15:25:07.072Z,2.37
2019-02-25T15:27:35.724Z,1.73
2019-02-25T15:30:04.987Z,1.57
2019-02-25T15:32:34.991Z,2.03
2019-02-25T15:35:01.699Z,3.23
2019-02-25T15:37:30.308Z,2.30
2019-02-25T15:39:58.779Z,2.80
2019-02-25T15:42:27.940Z,1.83
2019-02-25T15:44:57.478Z,2.40
2019-02-25T15:47:24.305Z,1.97
2019-02-25T15:49:52.630Z,2.43
2019-02-25T15:52:22.909Z,2.37
2019-02-25T15:54:49.697Z,1.93
2019-02-25T15:57:18.053Z,1.90
2019-02-25T15:59:46.478Z,2.60
2019-02-25T16:02:14.934Z,1.77
2019-02-25T16:04:43.307Z,1.80
2019-02-25T16:07:12.206Z,1.90
2019-02-25T16:09:40.663Z,2.10
2019-02-25T16:12:09.645Z,2.00
2019-02-25T16:14:38.978Z,1.97
2019-02-25T16:17:06.330Z,2.70
2019-02-25T16:19:41.533Z,3.23
2019-02-25T16:22:03.951Z,2.10
2019-02-25T16:24:31.944Z,2.57
2019-02-25T16:27:01.020Z,2.37
2019-02-25T16:29:33.584Z,2.37
2019-02-25T16:32:02.034Z,2.17
2019-02-25T16:34:31.595Z,1.83
2019-02-25T16:37:00.370Z,2.80
2019-02-25T16:39:27.219Z,2.10
2019-02-25T16:41:55.600Z,2.87
2019-02-25T16:44:24.147Z,3.83
2019-02-25T16:46:54.055Z,4.40
2019-02-25T16:49:20.966Z,4.60
2019-02-25T16:51:51.020Z,4.70
2019-02-25T16:54:20.204Z,4.17
2019-02-25T16:56:46.210Z,3.70
2019-02-25T16:59:15.745Z,4.37
2019-02-25T17:01:43.222Z,4.13
2019-02-25T17:04:12.161Z,3.13
2019-02-25T17:06:40.173Z,3.37
2019-02-25T17:09:09.799Z,2.93
2019-02-25T17:11:37.967Z,2.50
2019-02-25T17:14:05.599Z,3.10
2019-02-25T17:16:34.169Z,3.07
2019-02-25T17:19:02.545Z,2.10
2019-02-25T17:21:31.392Z,2.37
2019-02-25T17:24:00.556Z,2.67
2019-02-25T17:26:28.171Z,2.70
2019-02-25T17:28:56.822Z,2.73
2019-02-25T17:31:25.146Z,2.80
2019-02-25T17:33:54.101Z,2.50
2019-02-25T17:36:22.416Z,2.10
2019-02-25T17:38:51.956Z,2.60
2019-02-25T17:41:19.456Z,2.10
2019-02-25T17:43:48.013Z,2.87
2019-02-25T17:46:16.352Z,3.10
2019-02-25T17:48:46.064Z,2.43
2019-02-25T17:51:13.602Z,3.13
2019-02-25T17:53:43.774Z,3.17
2019-02-25T17:56:10.244Z,2.40
2019-02-25T17:58:40.375Z,2.40
2019-02-25T18:01:07.246Z,2.73
2019-02-25T18:03:37.330Z,2.70
2019-02-25T18:06:05.286Z,2.87
2019-02-25T18:08:34.275Z,3.57
2019-02-25T18:11:01.307Z,2.27
2019-02-25T18:13:30.644Z,2.80
2019-02-25T18:15:58.795Z,2.60
2019-02-25T18:18:27.221Z,2.30
2019-02-25T18:20:55.772Z,2.10
2019-02-25T18:23:24.310Z,2.67
2019-02-25T18:25:53.587Z,1.83
2019-02-25T18:28:22.592Z,2.70
2019-02-25T18:30:49.575Z,2.43
2019-02-25T18:33:20.180Z,2.60
2019-02-25T18:35:46.676Z,5.90
2019-02-25T18:38:15.069Z,3.00
2019-02-25T18:40:45.776Z,2.87
2019-02-25T18:43:12.147Z,2.63
2019-02-25T18:45:42.637Z,2.93
2019-02-25T18:48:09.044Z,3.13
2019-02-25T18:50:39.299Z,2.47
2019-02-25T18:53:06.148Z,2.53
2019-02-25T18:55:34.544Z,2.97
2019-02-25T18:58:04.784Z,2.60
2019-02-25T19:00:33.565Z,2.80
2019-02-25T19:03:02.541Z,2.30
2019-02-25T19:05:31.465Z,2.30
2019-02-25T19:07:59.140Z,2.20
2019-02-25T19:10:27.572Z,1.93
2019-02-25T19:12:57.078Z,1.97
2019-02-25T19:15:24.752Z,2.27
2019-02-25T19:17:54.387Z,1.90
2019-02-25T19:20:22.095Z,1.60
2019-02-25T19:22:50.619Z,1.73
2019-02-25T19:25:20.881Z,1.30
2019-02-25T19:27:49.615Z,1.80
2019-02-25T19:30:19.590Z,2.27
2019-02-25T19:32:45.256Z,2.87
2019-02-25T19:35:14.059Z,1.67
2019-02-25T19:37:44.329Z,1.80
2019-02-25T19:40:14.273Z,1.90
2019-02-25T19:42:40.592Z,1.83
2019-02-25T19:45:10.071Z,1.70
2019-02-25T19:47:40.330Z,2.03
2019-02-25T19:50:09.815Z,1.80
2019-02-25T19:52:39.405Z,2.00
2019-02-25T19:55:07.966Z,1.87
2019-02-25T19:57:34.837Z,1.93
2019-02-25T20:00:03.348Z,1.67
2019-02-25T20:02:32.252Z,2.30
2019-02-25T20:05:00.236Z,2.30
2019-02-25T20:07:30.905Z,2.70
2019-02-25T20:09:57.857Z,2.00
2019-02-25T20:12:25.733Z,2.40
2019-02-25T20:14:54.247Z,2.47
2019-02-25T20:17:27.791Z,2.27
2019-02-25T20:19:51.926Z,2.60
2019-02-25T20:22:20.491Z,2.37
2019-02-25T20:24:50.711Z,2.10
2019-02-25T20:27:17.528Z,2.30
2019-02-25T20:29:47.878Z,2.50
2019-02-25T20:32:16.367Z,2.40
2019-02-25T20:34:45.941Z,2.60
2019-02-25T20:37:11.537Z,2.30
2019-02-25T20:39:41.153Z,2.47
2019-02-25T20:42:08.688Z,2.53
2019-02-25T20:44:37.055Z,2.50
2019-02-25T20:47:05.550Z,2.30
2019-02-25T20:49:34.061Z,2.03
2019-02-25T20:52:02.412Z,2.77
2019-02-25T20:54:30.852Z,3.23
2019-02-25T20:56:59.400Z,2.60
2019-02-25T20:59:28.735Z,2.07
2019-02-25T21:01:56.197Z,3.23
2019-02-25T21:04:24.695Z,1.60
2019-02-25T21:06:53.068Z,2.30
2019-02-25T21:09:21.560Z,2.10
2019-02-25T21:11:50.170Z,2.03
2019-02-25T21:14:18.460Z,2.00
2019-02-25T21:16:46.726Z,2.30
2019-02-25T21:19:17.571Z,2.07
2019-02-25T21:21:43.532Z,2.17
2019-02-25T21:24:13.607Z,2.37
2019-02-25T21:26:40.986Z,2.43
2019-02-25T21:29:09.718Z,2.13
2019-02-25T21:31:37.333Z,2.60
2019-02-25T21:34:05.776Z,1.77
2019-02-25T21:36:35.826Z,1.93
2019-02-25T21:39:02.784Z,2.47
2019-02-25T21:41:31.178Z,2.10
2019-02-25T21:43:59.544Z,2.20
2019-02-25T21:46:29.071Z,1.83
2019-02-25T21:48:57.524Z,1.70
2019-02-25T21:51:24.674Z,1.90
2019-02-25T21:53:55.589Z,1.43
2019-02-25T21:56:23.295Z,2.03
2019-02-25T21:58:51.039Z,1.87
2019-02-25T22:01:18.686Z,2.03
2019-02-25T22:03:48.619Z,1.50
2019-02-25T22:06:18.095Z,1.93
2019-02-25T22:08:43.952Z,2.10
2019-02-25T22:11:15.605Z,2.13
2019-02-25T22:13:40.697Z,2.57
2019-02-25T22:16:09.387Z,1.80
2019-02-25T22:18:38.020Z,1.77
2019-02-25T22:21:09.203Z,1.53
2019-02-25T22:23:37.044Z,2.10
2019-02-25T22:26:04.333Z,1.77
2019-02-25T22:28:34.378Z,1.80
2019-02-25T22:31:01.063Z,1.50
2019-02-25T22:33:30.462Z,1.80
2019-02-25T22:35:58.202Z,2.70
2019-02-25T22:38:26.540Z,1.90
2019-02-25T22:40:55.978Z,1.50
2019-02-25T22:43:23.504Z,1.47
2019-02-25T22:45:51.837Z,1.60
2019-02-25T22:48:21.537Z,1.70
2019-02-25T22:50:51.248Z,1.87
2019-02-25T22:53:17.569Z,1.63
2019-02-25T22:55:47.832Z,2.13
2019-02-25T22:58:16.948Z,1.70
2019-02-25T23:00:46.555Z,1.80
2019-02-25T23:03:17.796Z,1.70
2019-02-25T23:05:45.978Z,1.60
2019-02-25T23:08:13.091Z,1.53
2019-02-25T23:10:42.549Z,1.60
2019-02-25T23:13:09.691Z,1.93
2019-02-25T23:15:38.079Z,1.73
2019-02-25T23:18:10.113Z,1.43
2019-02-25T23:20:34.906Z,1.53
2019-02-25T23:23:06.516Z,1.57
2019-02-25T23:25:32.111Z,2.47
2019-02-25T23:28:02.193Z,1.50
2019-02-25T23:30:29.029Z,1.63
2019-02-25T23:32:57.451Z,1.57
2019-02-25T23:35:26.016Z,1.33
2019-02-25T23:37:56.260Z,1.50
2019-02-25T23:40:23.391Z,1.83
2019-02-25T23:42:51.766Z,1.93
2019-02-25T23:45:22.512Z,1.50
2019-02-25T23:47:49.138Z,1.43
2019-02-25T23:50:17.517Z,1.47
2019-02-25T23:52:45.844Z,1.43
2019-02-25T23:55:16.652Z,2.80
2019-02-25T23:57:42.918Z,1.37
